PAEI METAR and TAF weather

Enter ICAO airport designator
Station Type Date Time Source
PAEI METAR 2019/06/26 19:56 UTC NOAA

PAEI 261956Z 04005KT 10SM FEW070 22/03 A3014 RMK AO2A SLPNO ALTSG ESTMD T02190026 $


Station Type Date Time Source
PAEI Decoded METAR 2019/06/26 19:56 UTC NOAA

Fairbanks, Eielson Air Force Base, AK, United States (PAEI) 64-39N 147-06W 167M
Jun 26, 2019 - 03:56 PM EDT / 2019.06.26 1956 UTC
Wind: from the NE (040 degrees) at 6 MPH (5 KT):0
Visibility: 10 mile(s):0
Sky conditions: mostly clear
Temperature: 71.4 F (21.9 C)
Dew Point: 36.7 F (2.6 C)
Relative Humidity: 28%
Pressure (altimeter): 30.14 in. Hg (1020 hPa)
ob: PAEI 261956Z 04005KT 10SM FEW070 22/03 A3014 RMK AO2A SLPNO ALTSG ESTMD T02190026
cycle: 20

Station Type Date Time Source
PAEI TAF 2019/06/26 20:36 UTC NOAA

TAF PAEI 262000Z 2620/2802 VRB06KT 9999 FEW120 QNH3000INS
BECMG 2701/2702 33009KT 9000 FU SCT100 QNH2998INS TX24/2701Z TN08/2712Z

Example: see airport list